Time;durP1;ratioP1;P1;durP2;ratioP2;P2;SDS_P1;SDS_P2;PMS_P1;PMS_P2;Temp;Humidity;BMP_temperature;BMP_pressure;BME280_temperature;BME280_humidity;BME280_pressure;Samples;Min_cycle;Max_cycle;Signal;HPM_P1;HPM_P2
2023/05/16 00:00:07;;;;;;;0.50;0.50;;;;;;;10.73;95.05;96562.41;29395;381;63009;-54
2023/05/16 00:00:40;;;;;;;0.43;0.43;;;;;;;10.75;94.92;96567.50;29395;208;63009;-55
2023/05/16 00:01:11;;;;;;;0.40;0.40;;;;;;;10.73;95.28;96559.69;29395;254;63004;-55
2023/05/16 00:01:42;;;;;;;0.50;0.50;;;;;;;10.72;95.46;96560.00;29394;232;64013;-55
2023/05/16 00:02:14;;;;;;;0.50;0.50;;;;;;;10.71;95.32;96561.91;29395;220;63004;-56
2023/05/16 00:02:46;;;;;;;0.50;0.50;;;;;;;10.72;94.96;96563.50;29395;235;63008;-55
2023/05/16 00:03:21;;;;;;;0.40;0.40;;;;;;;10.72;95.00;96562.69;29395;256;63004;-55
2023/05/16 00:03:52;;;;;;;0.50;0.50;;;;;;;10.72;94.83;96563.50;29395;237;63009;-56
2023/05/16 00:04:25;;;;;;;0.50;0.50;;;;;;;10.73;95.49;96570.53;29395;244;63005;-55
2023/05/16 00:04:56;;;;;;;0.50;0.50;;;;;;;10.71;96.09;96561.91;29395;197;63009;-55
2023/05/16 00:05:28;;;;;;;0.40;0.40;;;;;;;10.71;95.99;96561.91;29395;213;63005;-58
2023/05/16 00:06:01;;;;;;;0.50;0.50;;;;;;;10.71;96.17;96561.91;29395;214;63016;-55
2023/05/16 00:06:34;;;;;;;0.50;0.50;;;;;;;10.73;96.10;96567.03;29395;251;63005;-55
2023/05/16 00:07:06;;;;;;;0.40;0.40;;;;;;;10.73;95.66;96565.13;29394;239;64013;-55
2023/05/16 00:07:37;;;;;;;0.50;0.50;;;;;;;10.74;95.33;96561.28;29395;258;63005;-55
2023/05/16 00:08:08;;;;;;;0.40;0.40;;;;;;;10.73;95.08;96565.13;29395;264;63009;-54
2023/05/16 00:08:41;;;;;;;0.40;0.40;;;;;;;10.72;95.37;96558.09;29395;239;63009;-55
2023/05/16 00:09:12;;;;;;;0.50;0.50;;;;;;;10.71;95.02;96559.19;29395;210;63009;-56
2023/05/16 00:09:43;;;;;;;0.40;0.40;;;;;;;10.71;95.07;96556.47;29395;244;63004;-55
2023/05/16 00:10:15;;;;;;;0.50;0.50;;;;;;;10.74;95.25;96561.28;29395;496;63009;-55
2023/05/16 00:10:46;;;;;;;0.40;0.40;;;;;;;10.74;94.79;96563.97;29395;228;63004;-55
2023/05/16 00:11:17;;;;;;;0.50;0.50;;;;;;;10.75;94.83;96557.44;29395;259;63009;-55
2023/05/16 00:11:49;;;;;;;0.50;0.50;;;;;;;10.76;94.43;96563.69;29395;206;63005;-55
2023/05/16 00:12:21;;;;;;;0.50;0.50;;;;;;;10.78;94.79;96560.66;29394;435;64014;-55
2023/05/16 00:12:55;;;;;;;0.50;0.50;;;;;;;10.80;94.62;96558.47;29395;202;63005;-56
2023/05/16 00:13:28;;;;;;;0.45;0.45;;;;;;;10.80;94.46;96553.84;29395;216;63009;-55
2023/05/16 00:14:00;;;;;;;0.40;0.40;;;;;;;10.81;94.19;96550.00;29395;253;63018;-55
2023/05/16 00:14:32;;;;;;;0.50;0.50;;;;;;;10.84;93.97;96559.47;29395;262;63026;-56
2023/05/16 00:15:05;;;;;;;0.40;0.40;;;;;;;10.87;93.94;96556.16;29394;218;64009;-55
2023/05/16 00:15:37;;;;;;;0.50;0.50;;;;;;;10.89;93.73;96549.31;29395;196;63009;-54
2023/05/16 00:16:08;;;;;;;0.50;0.50;;;;;;;10.91;93.46;96565.31;29395;198;63004;-55
2023/05/16 00:16:40;;;;;;;0.50;0.50;;;;;;;10.91;93.31;96549.00;29395;474;63009;-55
2023/05/16 00:17:12;;;;;;;0.50;0.50;;;;;;;10.92;93.16;96553.34;29395;200;63014;-55
2023/05/16 00:17:45;;;;;;;0.50;0.50;;;;;;;10.92;93.45;96564.19;29395;224;63022;-55
2023/05/16 00:18:18;;;;;;;0.45;0.45;;;;;;;10.94;93.12;96548.41;29395;236;63017;-55
2023/05/16 00:18:49;;;;;;;0.50;0.50;;;;;;;10.95;92.93;96552.72;29395;247;63009;-55
2023/05/16 00:19:21;;;;;;;0.50;0.50;;;;;;;10.97;93.15;96553.25;29395;214;63005;-55
2023/05/16 00:19:57;;;;;;;0.50;0.50;;;;;;;10.97;92.96;96548.59;29395;227;63009;-55
2023/05/16 00:20:29;;;;;;;0.50;0.50;;;;;;;10.98;92.71;96555.66;29394;230;64009;-55
2023/05/16 00:21:04;;;;;;;0.50;0.50;;;;;;;10.98;93.11;96554.84;29395;219;63009;-55
2023/05/16 00:21:36;;;;;;;0.50;0.50;;;;;;;10.99;92.80;96546.41;29394;239;64009;-55
2023/05/16 00:22:07;;;;;;;0.50;0.50;;;;;;;11.00;92.78;96552.62;29395;217;63009;-55
2023/05/16 00:22:38;;;;;;;0.50;0.50;;;;;;;11.01;92.91;96554.25;29395;221;63005;-55
2023/05/16 00:23:11;;;;;;;0.50;0.50;;;;;;;11.01;92.45;96552.31;29395;209;63009;-55
2023/05/16 00:23:43;;;;;;;0.50;0.50;;;;;;;11.02;92.63;96555.84;29394;220;64009;-55
2023/05/16 00:24:14;;;;;;;0.50;0.50;;;;;;;11.02;92.40;96555.84;29394;231;64009;-56
2023/05/16 00:24:46;;;;;;;0.50;0.50;;;;;;;11.03;92.46;96549.31;29395;242;63004;-55
2023/05/16 00:25:17;;;;;;;0.50;0.50;;;;;;;11.03;92.56;96554.75;29395;202;63009;-55
2023/05/16 00:25:50;;;;;;;0.50;0.50;;;;;;;11.03;92.15;96562.87;29395;211;63004;-55
2023/05/16 00:26:23;;;;;;;0.50;0.50;;;;;;;11.01;92.37;96552.31;29395;250;63009;-55
2023/05/16 00:26:54;;;;;;;0.50;0.50;;;;;;;11.02;92.12;96559.38;29395;232;63005;-55
2023/05/16 00:27:25;;;;;;;0.40;0.40;;;;;;;11.03;92.28;96552.84;29394;225;64014;-55
2023/05/16 00:27:57;;;;;;;0.50;0.50;;;;;;;11.04;92.29;96559.06;29395;264;63016;-55
2023/05/16 00:28:29;;;;;;;0.50;0.50;;;;;;;11.05;92.26;96555.25;29395;221;63017;-55
2023/05/16 00:29:01;;;;;;;0.43;0.43;;;;;;;11.04;92.44;96564.50;29395;241;63005;-55
2023/05/16 00:29:34;;;;;;;0.40;0.40;;;;;;;11.06;92.14;96559.56;29395;242;63026;-57
2023/05/16 00:30:07;;;;;;;0.50;0.50;;;;;;;11.08;92.27;96560.06;29395;268;63005;-55
2023/05/16 00:30:39;;;;;;;0.50;0.50;;;;;;;11.09;92.32;96553.50;29395;240;63009;-55
2023/05/16 00:31:11;;;;;;;0.50;0.50;;;;;;;11.10;92.03;96557.81;29395;242;63013;-56
2023/05/16 00:31:42;;;;;;;0.47;0.47;;;;;;;11.09;91.93;96553.50;29395;219;63009;-55
2023/05/16 00:32:14;;;;;;;0.43;0.43;;;;;;;11.08;92.03;96555.44;29395;264;63004;-55
2023/05/16 00:32:46;;;;;;;0.50;0.50;;;;;;;11.07;92.31;96555.75;29394;239;64013;-55
2023/05/16 00:33:17;;;;;;;0.50;0.50;;;;;;;11.05;92.39;96550.63;29394;214;64004;-55
2023/05/16 00:33:50;;;;;;;0.50;0.50;;;;;;;11.04;92.08;96553.63;29395;226;63009;-55
2023/05/16 00:34:21;;;;;;;0.50;0.50;;;;;;;11.05;92.15;96553.34;29395;320;63005;-56
2023/05/16 00:34:53;;;;;;;0.50;0.50;;;;;;;11.08;92.50;96549.22;29395;216;63009;-54
2023/05/16 00:35:24;;;;;;;0.50;0.50;;;;;;;11.08;92.25;96554.63;29395;199;63005;-56
2023/05/16 00:35:55;;;;;;;0.50;0.50;;;;;;;11.08;92.44;96558.16;29395;216;63009;-55
2023/05/16 00:36:27;;;;;;;0.50;0.50;;;;;;;11.06;92.39;96549.50;29395;253;63005;-55
2023/05/16 00:36:59;;;;;;;0.50;0.50;;;;;;;11.05;93.11;96556.03;29395;290;63009;-54
2023/05/16 00:37:30;;;;;;;0.50;0.50;;;;;;;11.03;93.37;96547.41;29394;247;64005;-55
2023/05/16 00:38:01;;;;;;;0.50;0.50;;;;;;;11.03;93.09;96558.25;29394;245;64013;-55
2023/05/16 00:38:34;;;;;;;0.50;0.50;;;;;;;11.01;93.17;96555.03;29395;212;63004;-55
2023/05/16 00:39:05;;;;;;;0.50;0.50;;;;;;;10.99;93.48;96551.03;29395;308;63009;-55
2023/05/16 00:39:37;;;;;;;0.50;0.50;;;;;;;10.98;93.43;96549.41;29394;215;64009;-55
2023/05/16 00:40:09;;;;;;;0.50;0.50;;;;;;;10.97;93.35;96547.81;29395;202;63009;-55
2023/05/16 00:40:40;;;;;;;0.50;0.50;;;;;;;10.97;93.28;96558.66;29394;231;64004;-55
2023/05/16 00:41:12;;;;;;;0.50;0.50;;;;;;;10.97;93.83;96555.94;29395;214;63008;-55
2023/05/16 00:41:44;;;;;;;0.50;0.50;;;;;;;10.96;93.73;96546.19;29395;198;63005;-55
2023/05/16 00:42:19;;;;;;;0.40;0.40;;;;;;;10.96;94.01;96551.62;29395;197;63009;-55
2023/05/16 00:42:51;;;;;;;0.50;0.50;;;;;;;10.95;93.89;96552.72;29395;265;63005;-55
2023/05/16 00:43:22;;;;;;;0.60;0.60;;;;;;;11.01;93.86;96548.81;29395;244;63009;-57
2023/05/16 00:43:53;;;;;;;0.47;0.47;;;;;;;11.02;93.65;96553.12;29395;226;63005;-55
2023/05/16 00:44:25;;;;;;;0.50;0.50;;;;;;;11.02;93.39;96555.84;29394;249;64013;-55
2023/05/16 00:44:56;;;;;;;0.40;0.40;;;;;;;11.00;93.13;96553.44;29395;272;63004;-55
2023/05/16 00:45:28;;;;;;;0.50;0.50;;;;;;;10.96;93.54;96546.19;29395;248;63009;-55
2023/05/16 00:45:59;;;;;;;0.50;0.50;;;;;;;10.98;93.32;96550.22;29395;252;63004;-55
2023/05/16 00:46:31;;;;;;;0.50;0.50;;;;;;;10.98;93.73;96557.56;29395;202;63009;-56
2023/05/16 00:47:03;;;;;;;0.50;0.50;;;;;;;10.97;93.32;96550.53;29395;252;63004;-55
2023/05/16 00:47:35;;;;;;;0.50;0.50;;;;;;;10.98;93.60;96549.41;29395;208;63008;-55
2023/05/16 00:48:08;;;;;;;0.50;0.50;;;;;;;10.99;93.42;96556.44;29394;202;64008;-56
2023/05/16 00:48:39;;;;;;;0.50;0.50;;;;;;;10.98;93.83;96549.41;29395;260;63008;-54
2023/05/16 00:49:11;;;;;;;0.50;0.50;;;;;;;10.98;93.68;96550.22;29395;240;63005;-56
2023/05/16 00:49:42;;;;;;;0.50;0.50;;;;;;;10.97;94.24;96551.31;29394;252;64013;-55
2023/05/16 00:50:14;;;;;;;0.50;0.50;;;;;;;10.97;94.05;96550.53;29395;270;63005;-55
2023/05/16 00:50:46;;;;;;;0.50;0.50;;;;;;;10.97;94.05;96542.38;29395;203;63009;-55
2023/05/16 00:51:18;;;;;;;0.50;0.50;;;;;;;10.96;94.10;96547.00;29395;327;63005;-55
2023/05/16 00:51:50;;;;;;;0.50;0.50;;;;;;;10.97;94.27;96547.81;29395;225;63009;-57
2023/05/16 00:52:23;;;;;;;0.50;0.50;;;;;;;10.96;95.02;96551.62;29395;197;63004;-55
2023/05/16 00:52:54;;;;;;;0.50;0.50;;;;;;;10.94;95.15;96548.41;29395;247;63024;-56
2023/05/16 00:53:29;;;;;;;0.50;0.50;;;;;;;10.94;95.20;96548.41;29395;236;63004;-56
2023/05/16 00:54:01;;;;;;;0.50;0.50;;;;;;;10.93;94.89;96553.03;29395;250;63004;-55
2023/05/16 00:54:33;;;;;;;0.50;0.50;;;;;;;10.94;94.75;96545.69;29395;243;63004;-55
2023/05/16 00:55:06;;;;;;;0.50;0.50;;;;;;;10.92;94.30;96551.44;29394;213;64013;-55
2023/05/16 00:55:38;;;;;;;0.50;0.50;;;;;;;10.93;94.67;96549.50;29395;230;63017;-55
2023/05/16 00:56:10;;;;;;;0.50;0.50;;;;;;;10.93;94.53;96546.81;29395;237;63015;-54
2023/05/16 00:56:41;;;;;;;0.50;0.50;;;;;;;10.92;94.63;96550.63;29395;204;63005;-55
2023/05/16 00:57:12;;;;;;;0.50;0.50;;;;;;;10.92;95.38;96558.75;29395;223;63009;-55
2023/05/16 00:57:44;;;;;;;0.50;0.50;;;;;;;10.89;95.71;96556.66;29394;208;64009;-55
2023/05/16 00:58:16;;;;;;;0.50;0.50;;;;;;;10.88;95.63;96552.31;29395;209;63009;-55
2023/05/16 00:58:49;;;;;;;0.50;0.50;;;;;;;10.87;95.71;96553.44;29395;256;63005;-55
2023/05/16 00:59:21;;;;;;;0.50;0.50;;;;;;;10.85;95.76;96550.22;29395;214;63009;-55
2023/05/16 00:59:53;;;;;;;0.40;0.40;;;;;;;10.85;95.84;96555.66;29395;225;63015;-55
2023/05/16 01:00:25;;;;;;;0.50;0.50;;;;;;;10.87;95.71;96554.25;29395;263;63009;-55
2023/05/16 01:00:56;;;;;;;0.40;0.40;;;;;;;10.87;95.57;96553.44;29395;206;63004;-55
2023/05/16 01:01:29;;;;;;;0.50;0.50;;;;;;;10.87;95.61;96551.53;29395;256;63009;-55
2023/05/16 01:02:01;;;;;;;0.50;0.50;;;;;;;10.88;95.53;96550.41;29395;204;63004;-55
2023/05/16 01:02:34;;;;;;;0.50;0.50;;;;;;;10.87;95.81;96545.28;29395;205;63008;-55
2023/05/16 01:03:05;;;;;;;0.50;0.50;;;;;;;10.87;95.56;96550.72;29394;218;64001;-55
2023/05/16 01:03:38;;;;;;;0.50;0.50;;;;;;;10.88;95.41;96555.03;29395;237;63009;-55
2023/05/16 01:04:10;;;;;;;0.50;0.50;;;;;;;10.88;95.61;96544.19;29395;216;63005;-55
2023/05/16 01:04:43;;;;;;;0.50;0.50;;;;;;;10.87;95.30;96542.56;29395;207;63009;-55
2023/05/16 01:05:15;;;;;;;0.40;0.40;;;;;;;10.88;95.25;96541.47;29395;248;63005;-55
2023/05/16 01:05:47;;;;;;;0.50;0.50;;;;;;;10.89;95.05;96540.37;29395;240;63009;-55
2023/05/16 01:06:19;;;;;;;0.47;0.47;;;;;;;10.88;95.40;96544.19;29395;245;63005;-55
2023/05/16 01:06:50;;;;;;;0.50;0.50;;;;;;;10.87;95.48;96543.38;29395;221;63009;-55
2023/05/16 01:07:22;;;;;;;0.50;0.50;;;;;;;10.89;95.28;96545.78;29395;286;63004;-56
2023/05/16 01:07:55;;;;;;;0.43;0.43;;;;;;;10.89;95.03;96545.78;29395;202;63009;-56
2023/05/16 01:08:26;;;;;;;0.50;0.50;;;;;;;10.91;95.10;96549.00;29394;202;64009;-56
2023/05/16 01:08:59;;;;;;;0.50;0.50;;;;;;;10.91;95.07;96549.00;29395;224;63009;-55
2023/05/16 01:09:34;;;;;;;0.40;0.40;;;;;;;10.92;95.09;96545.19;29394;223;64009;-56
2023/05/16 01:10:07;;;;;;;0.50;0.50;;;;;;;10.92;94.61;96545.19;29395;238;63004;-56
2023/05/16 01:10:57;;;;;;;0.50;0.50;;;;;;;10.93;94.82;96546.81;29395;204;63004;-56
2023/05/16 01:12:29;;;;;;;0.50;0.50;;;;;;;10.98;94.38;96549.41;29395;228;63009;-55
2023/05/16 01:13:12;;;;;;;0.50;0.50;;;;;;;11.06;94.07;96538.66;29395;197;63005;-56
2023/05/16 01:14:26;;;;;;;0.50;0.50;;;;;;;11.03;93.60;96541.16;29395;197;63009;-55
2023/05/16 01:15:07;;;;;;;0.50;0.50;;;;;;;10.98;93.57;96549.41;29394;202;64009;-55
2023/05/16 01:16:05;;;;;;;0.50;0.50;;;;;;;10.96;93.64;96546.19;29395;196;63009;-56
2023/05/16 01:16:43;;;;;;;0.50;0.50;;;;;;;10.90;94.94;96539.25;29395;328;63004;-57
2023/05/16 01:17:52;;;;;;;0.40;0.40;;;;;;;10.89;94.52;96543.09;29395;196;63013;-56
2023/05/16 01:18:42;;;;;;;0.50;0.50;;;;;;;10.96;94.67;96548.91;29395;388;63005;-55
2023/05/16 01:19:42;;;;;;;0.50;0.50;;;;;;;10.95;93.95;96544.59;29395;270;63027;-56
2023/05/16 01:21:02;;;;;;;0.90;0.90;;;;;;;11.15;92.83;96543.34;29394;231;64009;-59
2023/05/16 01:21:48;;;;;;;0.50;0.50;;;;;;;11.06;92.95;96552.22;29395;234;63005;-55
2023/05/16 01:22:46;;;;;;;0.50;0.50;;;;;;;11.02;92.68;96550.41;29395;202;63009;-57
2023/05/16 01:23:52;;;;;;;0.50;0.50;;;;;;;11.14;92.91;96549.88;29395;204;63004;-56
2023/05/16 01:24:47;;;;;;;0.50;0.50;;;;;;;11.11;92.74;96553.19;29395;219;63009;-58
2023/05/16 01:25:41;;;;;;;0.50;0.50;;;;;;;11.04;92.83;96553.63;29394;199;64008;-55
2023/05/16 01:26:19;;;;;;;0.50;0.50;;;;;;;10.99;93.22;96553.75;29395;207;63005;-55
2023/05/16 01:26:51;;;;;;;0.50;0.50;;;;;;;10.98;93.47;96549.41;29395;397;63009;-56
2023/05/16 01:27:26;;;;;;;0.50;0.50;;;;;;;11.03;93.40;96552.84;29395;247;63005;-58
2023/05/16 01:27:58;;;;;;;0.50;0.50;;;;;;;11.10;93.42;96552.41;29395;212;63009;-59
2023/05/16 01:28:31;;;;;;;0.50;0.50;;;;;;;11.07;93.02;96555.75;29395;224;63014;-56
2023/05/16 01:29:04;;;;;;;0.50;0.50;;;;;;;11.05;92.76;96552.53;29395;254;63009;-55
2023/05/16 01:29:35;;;;;;;0.50;0.50;;;;;;;11.01;93.09;96552.31;29395;213;63005;-56
2023/05/16 01:30:18;;;;;;;0.50;0.50;;;;;;;10.98;93.45;96552.12;29395;238;63009;-57
2023/05/16 01:30:50;;;;;;;0.50;0.50;;;;;;;10.96;93.42;96548.91;29394;197;64009;-57
2023/05/16 01:31:23;;;;;;;0.50;0.50;;;;;;;10.93;93.52;96553.03;29395;487;63009;-56
2023/05/16 01:31:54;;;;;;;0.70;0.70;;;;;;;10.90;93.63;96548.22;29395;359;63015;-55
2023/05/16 01:32:25;;;;;;;0.50;0.50;;;;;;;10.88;93.73;96555.84;29395;215;63009;-55
2023/05/16 01:32:56;;;;;;;0.50;0.50;;;;;;;10.86;94.00;96559.97;29395;253;63004;-55
2023/05/16 01:33:29;;;;;;;0.50;0.50;;;;;;;10.83;94.22;96555.16;29395;339;63009;-56
2023/05/16 01:34:01;;;;;;;0.50;0.50;;;;;;;10.81;94.37;96551.94;29395;208;63005;-55
2023/05/16 01:34:32;;;;;;;0.50;0.50;;;;;;;10.79;94.58;96562.28;29395;226;63009;-54
2023/05/16 01:35:08;;;;;;;0.40;0.40;;;;;;;10.77;94.70;96553.63;29395;434;63010;-55
2023/05/16 01:36:12;;;;;;;0.45;0.45;;;;;;;10.72;95.12;96557.28;29395;419;63011;-55
2023/05/16 01:37:12;;;;;;;0.50;0.50;;;;;;;10.70;95.47;96559.47;29394;267;64009;-55
2023/05/16 01:38:38;;;;;;;0.50;0.50;;;;;;;10.65;96.09;96560.38;29395;244;63019;-55
2023/05/16 01:39:44;;;;;;;0.50;0.50;;;;;;;10.69;96.03;96553.25;29395;213;63008;-56
2023/05/16 01:40:30;;;;;;;0.50;0.50;;;;;;;10.75;96.02;96560.16;29394;226;64013;-61
2023/05/16 01:42:15;;;;;;;0.89;0.84;;;;;;;10.77;95.33;96559.88;88169;202;64005;-56
2023/05/16 01:42:52;;;;;;;0.50;0.50;;;;;;;10.74;95.20;96563.97;29394;426;64024;-55
2023/05/16 01:43:45;;;;;;;0.50;0.50;;;;;;;10.73;95.97;96559.69;29395;208;63005;-55
2023/05/16 01:45:12;;;;;;;0.98;0.98;;;;;;;10.71;96.54;96561.91;29395;226;63009;-54
2023/05/16 01:45:50;;;;;;;0.50;0.50;;;;;;;10.70;96.80;96564.91;29394;265;64009;-57
2023/05/16 01:46:29;;;;;;;0.50;0.50;;;;;;;10.69;96.14;96561.41;29395;206;63009;-55
2023/05/16 01:47:11;;;;;;;0.50;0.50;;;;;;;10.66;96.07;96559.28;29395;274;63005;-55
2023/05/16 01:47:55;;;;;;;1.77;1.67;;;;;;;10.62;96.56;96558.28;29395;219;63009;-55
2023/05/16 01:48:33;;;;;;;0.50;0.50;;;;;;;10.58;96.76;96546.41;29395;392;63004;-55
2023/05/16 01:49:19;;;;;;;0.50;0.50;;;;;;;10.57;97.19;96555.66;29395;342;63009;-55
2023/05/16 01:50:12;;;;;;;0.50;0.50;;;;;;;10.58;97.00;96561.88;29395;213;63004;-55
2023/05/16 01:50:50;;;;;;;0.50;0.50;;;;;;;10.69;96.60;96557.88;29394;271;64014;-61
2023/05/16 01:51:27;;;;;;;0.50;0.50;;;;;;;10.69;96.14;96550.53;29395;259;63018;-58
2023/05/16 01:52:03;;;;;;;1.05;1.05;;;;;;;10.70;96.10;96554.06;29395;220;63009;-58
2023/05/16 01:52:44;;;;;;;0.62;0.62;;;;;;;10.78;95.63;96555.25;29395;202;63005;-59
2023/05/16 01:53:21;;;;;;;0.50;0.50;;;;;;;10.79;95.26;96557.66;29417;346;63009;-61
2023/05/16 01:53:58;;;;;;;0.50;0.50;;;;;;;10.75;95.42;96554.75;29395;471;63005;-58
2023/05/16 01:54:31;;;;;;;0.50;0.50;;;;;;;10.74;95.37;96550.41;29395;339;63009;-57
2023/05/16 01:55:09;;;;;;;0.50;0.50;;;;;;;10.73;95.34;96556.16;29395;272;63004;-58
2023/05/16 01:55:50;;;;;;;0.50;0.50;;;;;;;10.73;95.35;96556.97;29395;202;63024;-56
2023/05/16 01:56:21;;;;;;;;;;;;;;;10.73;95.59;96558.88;29996;983;6004;-57
2023/05/16 01:56:55;;;;;;;0.60;0.60;;;;;;;10.75;95.44;96554.75;29422;312;63000;-56
2023/05/16 01:57:28;;;;;;;0.50;0.50;;;;;;;10.73;94.97;96554.25;29395;203;63004;-55
2023/05/16 01:58:03;;;;;;;0.50;0.50;;;;;;;10.72;95.38;96563.50;29395;254;63000;-56
2023/05/16 01:58:37;;;;;;;0.50;0.50;;;;;;;10.69;95.45;96553.25;29395;508;63020;-56
2023/05/16 01:59:09;;;;;;;0.50;0.50;;;;;;;10.68;95.64;96556.28;29395;336;63005;-56
2023/05/16 01:59:41;;;;;;;0.50;0.50;;;;;;;10.70;95.84;96557.56;29395;255;63009;-56
2023/05/16 02:00:14;;;;;;;0.50;0.50;;;;;;;10.71;95.94;96556.47;29395;366;63005;-58
2023/05/16 02:00:45;;;;;;;0.50;0.50;;;;;;;10.71;95.73;96553.75;29395;293;63009;-58
2023/05/16 02:01:17;;;;;;;0.50;0.50;;;;;;;10.75;95.92;96559.34;29395;355;63005;-57
2023/05/16 02:01:51;;;;;;;0.50;0.50;;;;;;;10.75;95.24;96557.44;29395;249;63009;-57
2023/05/16 02:02:23;;;;;;;0.50;0.50;;;;;;;10.79;95.08;96556.84;29395;199;63005;-56
2023/05/16 02:02:55;;;;;;;0.50;0.50;;;;;;;10.77;94.98;96559.88;29395;225;63009;-57
2023/05/16 02:03:26;;;;;;;0.50;0.50;;;;;;;10.73;95.06;96554.25;29395;402;63004;-57
2023/05/16 02:03:58;;;;;;;0.50;0.50;;;;;;;10.69;95.00;96555.97;29394;225;64013;-57
2023/05/16 02:04:30;;;;;;;0.50;0.50;;;;;;;10.65;95.62;96556.87;29395;238;63004;-56
2023/05/16 02:05:01;;;;;;;0.50;0.50;;;;;;;10.61;95.28;96551.25;29394;199;64008;-57
2023/05/16 02:05:32;;;;;;;0.57;0.57;;;;;;;10.59;96.00;96556.16;29395;417;63004;-57
2023/05/16 02:06:03;;;;;;;0.50;0.50;;;;;;;10.56;95.93;96559.47;29395;202;63009;-58
2023/05/16 02:06:35;;;;;;;1.60;1.60;;;;;;;10.55;96.09;96563.28;29395;225;63012;-57
2023/05/16 02:07:07;;;;;;;0.50;0.50;;;;;;;10.53;96.26;96553.84;29395;238;63005;-58
2023/05/16 02:07:40;;;;;;;0.50;0.50;;;;;;;10.53;96.58;96549.22;29395;253;63005;-56
2023/05/16 02:08:12;;;;;;;0.50;0.50;;;;;;;10.52;96.29;96550.31;29395;331;63009;-56
2023/05/16 02:08:43;;;;;;;0.50;0.50;;;;;;;10.50;96.59;96555.25;29395;427;63005;-56
2023/05/16 02:09:15;;;;;;;0.50;0.50;;;;;;;10.48;96.60;96554.72;29394;279;64013;-57
2023/05/16 02:09:46;;;;;;;0.50;0.50;;;;;;;10.47;97.08;96560.47;29395;275;63005;-56
2023/05/16 02:10:19;;;;;;;0.50;0.50;;;;;;;10.45;97.38;96560.75;29395;333;63009;-59
2023/05/16 02:10:50;;;;;;;0.50;0.50;;;;;;;10.54;96.82;96561.69;29395;272;63004;-57
2023/05/16 02:11:22;;;;;;;1.60;1.52;;;;;;;10.64;96.53;96557.97;29395;339;63009;-56
2023/05/16 02:13:02;;;;;;;0.50;0.50;;;;;;;10.52;96.43;96554.94;88174;196;64004;-56
2023/05/16 02:13:33;;;;;;;0.50;0.50;;;;;;;10.47;96.74;96561.25;29394;199;63999;-55
2023/05/16 02:14:04;;;;;;;0.65;0.65;;;;;;;10.46;96.88;96558.84;29395;353;63005;-57
2023/05/16 02:14:36;;;;;;;0.50;0.50;;;;;;;10.46;97.03;96562.38;29395;420;63009;-54
2023/05/16 02:15:09;;;;;;;0.50;0.50;;;;;;;10.43;97.22;96552.12;29395;215;63005;-56
2023/05/16 02:15:40;;;;;;;0.50;0.50;;;;;;;10.41;97.44;96557.03;29395;366;63009;-55
2023/05/16 02:16:11;;;;;;;0.50;0.50;;;;;;;10.39;97.63;96559.28;29395;247;63005;-53
2023/05/16 02:16:42;;;;;;;0.50;0.50;;;;;;;10.40;98.12;96560.84;29395;254;63009;-57
2023/05/16 02:17:13;;;;;;;0.50;0.50;;;;;;;10.40;98.10;96555.41;29394;252;64009;-56
2023/05/16 02:17:46;;;;;;;0.50;0.50;;;;;;;10.41;98.43;96562.44;29395;419;63009;-55
2023/05/16 02:18:18;;;;;;;0.50;0.50;;;;;;;10.41;97.97;96557.03;29395;204;63018;-55
2023/05/16 02:18:49;;;;;;;0.50;0.50;;;;;;;10.38;98.05;96558.47;29395;445;63008;-55
2023/05/16 02:19:20;;;;;;;0.50;0.50;;;;;;;10.37;98.34;96561.47;29395;222;63004;-55
2023/05/16 02:19:52;;;;;;;0.50;0.50;;;;;;;10.35;98.35;96558.25;29395;256;63008;-56
2023/05/16 02:20:23;;;;;;;0.60;0.60;;;;;;;10.36;98.54;96560.66;29395;209;63005;-56
2023/05/16 02:20:55;;;;;;;0.50;0.50;;;;;;;10.40;98.95;96561.66;29395;231;63009;-56
2023/05/16 02:21:26;;;;;;;0.50;0.50;;;;;;;10.41;98.61;96562.44;29395;397;63005;-55
2023/05/16 02:21:57;;;;;;;0.50;0.50;;;;;;;10.43;98.92;96556.72;29395;222;63009;-56
2023/05/16 02:22:28;;;;;;;0.50;0.50;;;;;;;10.51;98.19;96556.84;29394;233;64009;-54
2023/05/16 02:23:00;;;;;;;0.40;0.40;;;;;;;10.50;97.72;96560.66;29395;234;63015;-54
2023/05/16 02:23:31;;;;;;;0.40;0.40;;;;;;;10.47;97.35;96555.03;29395;254;63004;-55
2023/05/16 02:24:04;;;;;;;0.50;0.50;;;;;;;10.43;97.54;96556.72;29395;227;63009;-56
2023/05/16 02:24:35;;;;;;;0.50;0.50;;;;;;;10.39;97.61;96556.56;29394;457;64009;-55
2023/05/16 02:25:07;;;;;;;0.45;0.45;;;;;;;10.36;97.79;96562.56;29395;322;63009;-55
2023/05/16 02:25:38;;;;;;;0.40;0.40;;;;;;;10.32;98.10;96561.56;29395;228;63004;-55
2023/05/16 02:26:09;;;;;;;0.40;0.40;;;;;;;10.30;98.46;96561.06;29395;202;63008;-55
2023/05/16 02:26:41;;;;;;;0.50;0.50;;;;;;;10.30;98.47;96555.63;29395;241;63005;-57
2023/05/16 02:27:12;;;;;;;0.40;0.40;;;;;;;10.29;98.71;96564.88;29395;224;63009;-55
2023/05/16 02:27:43;;;;;;;0.47;0.47;;;;;;;10.26;98.68;96558.13;29395;198;63005;-55
2023/05/16 02:28:14;;;;;;;0.50;0.50;;;;;;;10.24;99.10;96554.09;29395;357;63009;-55
2023/05/16 02:28:47;;;;;;;0.50;0.50;;;;;;;10.23;99.05;96561.44;29395;316;63005;-55
2023/05/16 02:29:18;;;;;;;0.50;0.50;;;;;;;10.25;99.44;96563.84;29395;282;63009;-55
2023/05/16 02:29:50;;;;;;;0.85;0.85;;;;;;;10.27;99.05;96559.75;29394;202;64009;-56
2023/05/16 02:30:21;;;;;;;0.40;0.40;;;;;;;10.28;99.21;96564.06;29395;321;63009;-55
2023/05/16 02:30:59;;;;;;;0.50;0.50;;;;;;;10.27;98.74;96564.34;29395;210;63004;-55
2023/05/16 02:31:32;;;;;;;0.40;0.40;;;;;;;10.26;98.89;96554.63;29395;214;63026;-55
2023/05/16 02:32:05;;;;;;;0.50;0.50;;;;;;;10.25;98.83;96563.84;29395;343;63004;-56
2023/05/16 02:32:36;;;;;;;0.50;0.50;;;;;;;10.27;98.98;96561.66;29395;198;63009;-55
2023/05/16 02:33:09;;;;;;;0.50;0.50;;;;;;;10.32;98.67;96564.28;29395;246;63018;-55
2023/05/16 02:33:40;;;;;;;0.43;0.43;;;;;;;10.32;99.00;96558.84;29395;236;63008;-55
2023/05/16 02:34:12;;;;;;;0.50;0.50;;;;;;;10.31;98.71;96557.25;29395;250;63005;-55
2023/05/16 02:34:43;;;;;;;0.50;0.50;;;;;;;10.29;98.70;96559.44;29395;199;63009;-55
2023/05/16 02:35:14;;;;;;;0.50;0.50;;;;;;;10.27;98.59;96561.66;29394;249;64009;-55
2023/05/16 02:35:46;;;;;;;0.50;0.50;;;;;;;10.24;98.96;96559.53;29395;255;63009;-55
2023/05/16 02:36:17;;;;;;;0.50;0.50;;;;;;;10.23;99.12;96555.22;29395;228;63005;-55
2023/05/16 02:36:48;;;;;;;0.50;0.50;;;;;;;10.23;99.57;96560.62;29395;280;63009;-55
2023/05/16 02:37:19;;;;;;;0.50;0.50;;;;;;;10.19;99.45;96568.56;29394;253;64009;-55
2023/05/16 02:37:50;;;;;;;0.40;0.40;;;;;;;10.17;99.89;96559.88;29395;199;63009;-55
2023/05/16 02:38:22;;;;;;;0.50;0.50;;;;;;;10.16;100.00;96562.87;29395;202;63007;-56
2023/05/16 02:38:53;;;;;;;0.50;0.50;;;;;;;10.16;100.00;96562.87;29395;226;63009;-55
2023/05/16 02:39:25;;;;;;;0.50;0.50;;;;;;;10.16;99.84;96560.19;29395;323;63004;-55
2023/05/16 02:39:57;;;;;;;0.50;0.50;;;;;;;10.14;100.00;96562.38;29395;419;63009;-55
2023/05/16 02:40:28;;;;;;;0.50;0.50;;;;;;;10.14;100.00;96554.25;29395;315;63004;-55
2023/05/16 02:41:00;;;;;;;0.50;0.50;;;;;;;10.15;100.00;96564.00;29395;197;63008;-55
2023/05/16 02:41:32;;;;;;;0.60;0.60;;;;;;;10.15;100.00;96564.00;29395;204;63007;-56
2023/05/16 02:42:06;;;;;;;0.50;0.50;;;;;;;10.15;100.00;96569.41;29395;405;63009;-57
2023/05/16 02:42:37;;;;;;;0.50;0.50;;;;;;;10.15;99.90;96564.78;29394;219;64000;-55
2023/05/16 02:43:09;;;;;;;0.50;0.50;;;;;;;10.15;99.92;96570.22;29395;277;63009;-56
2023/05/16 02:43:40;;;;;;;0.50;0.50;;;;;;;10.20;99.97;96555.81;29395;323;63005;-56
2023/05/16 02:44:11;;;;;;;0.50;0.50;;;;;;;10.21;99.48;96557.41;29394;204;64009;-55
2023/05/16 02:44:43;;;;;;;0.40;0.40;;;;;;;10.20;99.53;96562.03;29394;202;64009;-56
2023/05/16 02:45:14;;;;;;;0.50;0.50;;;;;;;10.20;99.27;96561.22;29395;267;63021;-55
2023/05/16 02:45:46;;;;;;;0.50;0.50;;;;;;;10.18;99.51;96553.34;29395;237;63007;-55
2023/05/16 02:46:26;;;;;;;0.50;0.50;;;;;;;10.16;99.45;96555.56;29395;364;63009;-55
2023/05/16 02:46:57;;;;;;;0.50;0.50;;;;;;;10.18;99.51;96563.41;29395;442;63004;-57
2023/05/16 02:47:28;;;;;;;0.50;0.50;;;;;;;10.19;99.26;96567.72;29395;237;63009;-56
2023/05/16 02:47:59;;;;;;;0.50;0.50;;;;;;;10.22;99.32;96556.31;29395;442;63004;-56